createdAt,value
2018-09-05T00:01:00.209Z,22.44
2018-09-05T00:03:29.221Z,22.46
2018-09-05T00:05:58.260Z,22.47
2018-09-05T00:08:27.274Z,22.48
2018-09-05T00:10:56.292Z,22.40
2018-09-05T00:13:25.318Z,22.43
2018-09-05T00:15:55.580Z,22.44
2018-09-05T00:18:24.697Z,22.48
2018-09-05T00:20:53.741Z,22.48
2018-09-05T00:23:22.878Z,22.52
2018-09-05T00:25:51.851Z,22.57
2018-09-05T00:28:20.881Z,22.54
2018-09-05T00:30:49.986Z,22.51
2018-09-05T00:33:19.149Z,22.53
2018-09-05T00:35:48.195Z,22.53
2018-09-05T00:38:17.177Z,22.49
2018-09-05T00:40:46.208Z,22.27
2018-09-05T00:43:15.318Z,22.11
2018-09-05T00:45:44.336Z,21.87
2018-09-05T00:48:13.361Z,21.63
2018-09-05T00:50:42.380Z,21.35
2018-09-05T00:53:11.340Z,21.16
2018-09-05T00:55:40.466Z,20.97
2018-09-05T00:58:09.478Z,20.60
2018-09-05T01:00:38.573Z,20.21
2018-09-05T01:03:07.617Z,20.09
2018-09-05T01:05:36.580Z,19.84
2018-09-05T01:08:05.785Z,19.70
2018-09-05T01:10:34.797Z,19.60
2018-09-05T01:13:03.906Z,19.58
2018-09-05T01:15:33.010Z,19.57
2018-09-05T01:18:02.137Z,19.52
2018-09-05T01:20:31.264Z,19.51
2018-09-05T01:23:00.288Z,19.53
2018-09-05T01:25:29.313Z,19.47
2018-09-05T01:27:58.296Z,19.44
2018-09-05T01:30:28.513Z,19.50
2018-09-05T01:32:58.976Z,19.53
2018-09-05T01:35:28.097Z,19.57
2018-09-05T01:37:57.264Z,19.58
2018-09-05T01:40:26.412Z,19.63
2018-09-05T01:42:55.447Z,19.60
2018-09-05T01:45:24.613Z,19.56
2018-09-05T01:47:53.625Z,19.51
2018-09-05T01:50:27.721Z,19.55
2018-09-05T01:52:56.664Z,19.61
2018-09-05T01:55:25.637Z,19.65
2018-09-05T01:57:54.611Z,19.72
2018-09-05T02:00:28.804Z,19.72
2018-09-05T02:02:58.029Z,19.76
2018-09-05T02:05:27.065Z,19.81
2018-09-05T02:07:56.111Z,19.83
2018-09-05T02:10:25.217Z,19.80
2018-09-05T02:12:54.164Z,19.80
2018-09-05T02:15:23.216Z,19.85
2018-09-05T02:17:52.405Z,19.87
2018-09-05T02:20:21.483Z,19.86
2018-09-05T02:22:50.505Z,19.86
2018-09-05T02:25:19.528Z,19.82
2018-09-05T02:27:48.672Z,19.79
2018-09-05T02:30:17.626Z,19.78
2018-09-05T02:32:46.763Z,19.78
2018-09-05T02:35:15.837Z,19.79
2018-09-05T02:37:45.122Z,19.80
2018-09-05T02:40:14.319Z,19.78
2018-09-05T02:42:43.272Z,19.74
2018-09-05T02:45:12.259Z,19.69
2018-09-05T02:47:41.375Z,19.67
2018-09-05T02:50:10.350Z,19.68
2018-09-05T02:52:39.541Z,19.72
2018-09-05T02:55:08.591Z,19.71
2018-09-05T02:57:37.652Z,19.75
2018-09-05T03:00:06.776Z,19.76
2018-09-05T03:02:35.801Z,19.77
2018-09-05T03:05:04.873Z,19.77
2018-09-05T03:07:33.901Z,19.79
2018-09-05T03:10:02.901Z,19.84
2018-09-05T03:12:31.921Z,19.83
2018-09-05T03:15:00.949Z,19.76
2018-09-05T03:17:30.004Z,19.79
2018-09-05T03:19:58.978Z,19.84
2018-09-05T03:22:27.943Z,19.85
2018-09-05T03:24:56.977Z,19.85
2018-09-05T03:27:25.982Z,19.84
2018-09-05T03:29:55.057Z,19.84
2018-09-05T03:32:24.035Z,19.80
2018-09-05T03:34:53.076Z,19.75
2018-09-05T03:37:22.065Z,19.69
2018-09-05T03:39:51.087Z,19.70
2018-09-05T03:42:20.181Z,19.67
2018-09-05T03:44:49.139Z,19.70
2018-09-05T03:47:18.187Z,19.68
2018-09-05T03:49:47.247Z,19.66
2018-09-05T03:52:16.292Z,19.65
2018-09-05T03:54:45.317Z,19.65
2018-09-05T03:57:14.379Z,19.65
2018-09-05T03:59:43.384Z,19.67
2018-09-05T04:02:12.360Z,19.72
2018-09-05T04:04:41.342Z,19.71
2018-09-05T04:07:10.364Z,19.72
2018-09-05T04:09:39.397Z,19.75
2018-09-05T04:12:08.432Z,19.81
2018-09-05T04:14:37.490Z,19.84
2018-09-05T04:17:06.492Z,19.88
2018-09-05T04:19:35.520Z,19.98
2018-09-05T04:22:04.557Z,20.06
2018-09-05T04:24:33.586Z,20.08
2018-09-05T04:27:02.633Z,20.08
2018-09-05T04:29:31.733Z,20.14
2018-09-05T04:32:00.829Z,20.19
2018-09-05T04:34:29.803Z,20.22
2018-09-05T04:36:58.755Z,20.25
2018-09-05T04:39:27.717Z,20.28
2018-09-05T04:41:56.775Z,20.27
2018-09-05T04:44:25.909Z,20.28
2018-09-05T04:46:54.917Z,20.29
2018-09-05T04:49:24.038Z,20.29
2018-09-05T04:51:53.020Z,20.30
2018-09-05T04:54:22.016Z,20.31
2018-09-05T04:56:51.075Z,20.30
2018-09-05T04:59:20.129Z,20.22
2018-09-05T05:01:49.156Z,20.24
2018-09-05T05:04:18.192Z,20.14
2018-09-05T05:06:47.203Z,20.08
2018-09-05T05:09:16.230Z,20.10
2018-09-05T05:11:45.229Z,20.15
2018-09-05T05:14:14.253Z,20.09
2018-09-05T05:16:43.418Z,20.15
2018-09-05T05:19:12.441Z,20.19
2018-09-05T05:21:41.490Z,20.20
2018-09-05T05:24:10.436Z,20.28
2018-09-05T05:26:39.400Z,20.30
2018-09-05T05:29:08.384Z,20.41
2018-09-05T05:31:37.480Z,20.45
2018-09-05T05:34:06.627Z,20.45
2018-09-05T05:36:35.599Z,20.53
2018-09-05T05:39:06.968Z,20.63
2018-09-05T05:41:35.920Z,20.71
2018-09-05T05:44:04.933Z,20.88
2018-09-05T05:46:34.166Z,20.95
2018-09-05T05:49:03.320Z,21.19
2018-09-05T05:51:32.349Z,21.48
2018-09-05T05:54:01.519Z,21.83
2018-09-05T05:56:30.646Z,22.26
2018-09-05T05:58:59.665Z,22.51
2018-09-05T06:01:28.770Z,22.71
2018-09-05T06:03:57.865Z,22.72
2018-09-05T06:06:26.974Z,22.76
2018-09-05T06:08:55.976Z,22.92
2018-09-05T06:11:25.104Z,22.97
2018-09-05T06:13:54.057Z,23.03
2018-09-05T06:16:23.232Z,23.42
2018-09-05T06:18:52.215Z,23.49
2018-09-05T06:21:21.180Z,23.43
2018-09-05T06:23:50.280Z,23.33
2018-09-05T06:26:19.241Z,23.11
2018-09-05T06:28:48.461Z,23.19
2018-09-05T06:31:17.670Z,23.13
2018-09-05T06:33:46.610Z,23.20
2018-09-05T06:36:15.663Z,23.48
2018-09-05T06:38:44.650Z,24.18
2018-09-05T06:41:13.688Z,24.78
2018-09-05T06:43:42.673Z,25.20
2018-09-05T06:46:11.640Z,25.37
2018-09-05T06:48:40.873Z,25.54
2018-09-05T06:51:09.903Z,25.94
2018-09-05T06:53:39.909Z,26.12
2018-09-05T06:56:09.023Z,25.98
2018-09-05T06:58:38.142Z,25.70
2018-09-05T07:01:07.177Z,25.60
2018-09-05T07:03:36.340Z,25.82
2018-09-05T07:06:05.324Z,25.78
2018-09-05T07:08:34.322Z,26.11
2018-09-05T07:11:03.338Z,26.20
2018-09-05T07:13:32.305Z,26.45
2018-09-05T07:16:01.272Z,26.46
2018-09-05T07:18:30.477Z,26.51
2018-09-05T07:21:05.679Z,26.24
2018-09-05T07:23:29.023Z,26.24
2018-09-05T07:25:58.040Z,26.49
2018-09-05T07:28:27.129Z,26.65
2018-09-05T07:30:56.232Z,26.35
2018-09-05T07:33:25.229Z,26.44
2018-09-05T07:35:54.366Z,26.64
2018-09-05T07:38:23.392Z,26.87
2018-09-05T07:40:52.504Z,26.90
2018-09-05T07:43:21.573Z,26.86
2018-09-05T07:45:50.590Z,26.74
2018-09-05T07:48:19.729Z,27.06
2018-09-05T07:50:48.775Z,27.47
2018-09-05T07:53:17.817Z,27.62
2018-09-05T07:55:46.767Z,27.44
2018-09-05T07:58:15.809Z,27.53
2018-09-05T08:00:44.907Z,27.71
2018-09-05T08:03:13.920Z,28.17
2018-09-05T08:05:42.917Z,28.13
2018-09-05T08:08:11.921Z,28.07
2018-09-05T08:10:40.930Z,28.02
2018-09-05T08:13:09.960Z,27.51
2018-09-05T08:15:39.028Z,27.35
2018-09-05T08:18:08.098Z,27.50
2018-09-05T08:20:37.171Z,27.21
2018-09-05T08:23:06.340Z,27.26
2018-09-05T08:25:35.466Z,27.66
2018-09-05T08:28:04.477Z,27.95
2018-09-05T08:30:33.499Z,27.91
2018-09-05T08:33:02.492Z,27.59
2018-09-05T08:35:31.768Z,27.59
2018-09-05T08:38:00.999Z,27.56
2018-09-05T08:40:29.836Z,27.13
2018-09-05T08:42:58.832Z,27.52
2018-09-05T08:45:28.392Z,27.71
2018-09-05T08:47:56.882Z,27.75
2018-09-05T08:50:25.969Z,27.96
2018-09-05T08:52:55.089Z,28.09
2018-09-05T08:55:24.205Z,28.34
2018-09-05T08:57:53.260Z,28.45
2018-09-05T09:00:22.225Z,28.47
2018-09-05T09:02:51.409Z,28.88
2018-09-05T09:05:20.370Z,29.44
2018-09-05T09:07:49.425Z,29.67
2018-09-05T09:10:18.575Z,29.59
2018-09-05T09:12:47.688Z,29.27
2018-09-05T09:15:16.728Z,28.59
2018-09-05T09:17:45.788Z,28.68
2018-09-05T09:20:14.836Z,28.76
2018-09-05T09:22:43.911Z,28.83
2018-09-05T09:25:12.950Z,29.01
2018-09-05T09:27:42.028Z,29.32
2018-09-05T09:30:11.066Z,29.71
2018-09-05T09:32:40.130Z,29.63
2018-09-05T09:35:09.484Z,29.87
2018-09-05T09:37:38.424Z,29.55
2018-09-05T09:40:07.556Z,29.25
2018-09-05T09:42:36.532Z,28.88
2018-09-05T09:45:05.640Z,29.03
2018-09-05T09:47:34.683Z,28.95
2018-09-05T09:50:03.721Z,29.30
2018-09-05T09:52:36.801Z,29.43
2018-09-05T09:55:06.841Z,29.16
2018-09-05T09:57:36.014Z,29.55
2018-09-05T10:00:05.385Z,29.66
2018-09-05T10:03:43.195Z,29.53
2018-09-05T10:06:21.771Z,29.58
2018-09-05T10:08:56.847Z,29.49
2018-09-05T10:11:30.930Z,29.66
2018-09-05T10:14:04.856Z,29.79
2018-09-05T10:16:44.123Z,29.34
2018-09-05T10:19:13.689Z,29.08
2018-09-05T10:21:42.850Z,29.06
2018-09-05T10:24:11.797Z,29.31
2018-09-05T10:26:40.825Z,29.86
2018-09-05T10:29:10.091Z,29.86
2018-09-05T10:31:39.214Z,29.59
2018-09-05T10:34:08.694Z,29.52
2018-09-05T10:36:37.695Z,29.73
2018-09-05T10:39:09.430Z,29.97
2018-09-05T10:41:38.740Z,30.12
2018-09-05T10:44:08.162Z,30.29
2018-09-05T10:46:37.565Z,30.88
2018-09-05T10:49:07.086Z,31.10
2018-09-05T10:51:41.193Z,31.31
2018-09-05T10:54:10.260Z,31.27
2018-09-05T10:56:39.341Z,30.77
2018-09-05T10:59:08.384Z,30.30
2018-09-05T11:01:37.497Z,29.69
2018-09-05T11:04:06.795Z,30.10
2018-09-05T11:06:35.792Z,31.10
2018-09-05T11:09:06.691Z,31.89
2018-09-05T11:11:35.756Z,31.85
2018-09-05T11:14:05.149Z,32.37
2018-09-05T11:16:34.211Z,32.66
2018-09-05T11:19:03.651Z,33.16
2018-09-05T11:21:33.152Z,33.82
2018-09-05T11:24:02.244Z,34.25
2018-09-05T11:26:31.216Z,34.15
2018-09-05T11:29:00.813Z,33.71
2018-09-05T11:31:29.767Z,33.64
2018-09-05T11:33:58.772Z,33.41
2018-09-05T11:36:27.755Z,33.32
2018-09-05T11:38:56.854Z,32.96
2018-09-05T11:41:25.998Z,32.81
2018-09-05T11:43:55.134Z,32.36
2018-09-05T11:46:24.752Z,31.92
2018-09-05T11:48:53.720Z,32.03
2018-09-05T11:51:22.737Z,32.19
2018-09-05T11:53:51.751Z,31.41
2018-09-05T11:56:20.718Z,30.91
2018-09-05T11:58:49.765Z,30.47
2018-09-05T12:01:18.804Z,30.16
2018-09-05T12:03:47.861Z,29.85
2018-09-05T12:06:16.897Z,29.78
2018-09-05T12:08:45.905Z,29.42
2018-09-05T12:11:14.906Z,29.48
2018-09-05T12:13:44.025Z,29.55
2018-09-05T12:16:13.062Z,29.48
2018-09-05T12:18:43.121Z,29.28
2018-09-05T12:21:12.164Z,29.24
2018-09-05T12:23:41.297Z,29.21
2018-09-05T12:26:10.378Z,29.09
2018-09-05T12:28:39.468Z,28.84
2018-09-05T12:31:08.492Z,28.77
2018-09-05T12:33:38.015Z,28.58
2018-09-05T12:36:08.746Z,28.53
2018-09-05T12:38:38.317Z,28.51
2018-09-05T12:41:07.373Z,28.79
2018-09-05T12:43:36.445Z,28.75
2018-09-05T12:46:05.501Z,28.88
2018-09-05T12:48:34.573Z,29.06
2018-09-05T12:51:03.708Z,29.56
2018-09-05T12:53:32.640Z,30.03
2018-09-05T12:56:01.659Z,29.87
2018-09-05T12:58:30.672Z,29.92
2018-09-05T13:00:59.793Z,30.04
2018-09-05T13:03:28.980Z,29.87
2018-09-05T13:05:58.314Z,29.70
2018-09-05T13:08:27.275Z,30.06
2018-09-05T13:10:56.310Z,29.91
2018-09-05T13:13:25.272Z,29.24
2018-09-05T13:15:54.408Z,29.02
2018-09-05T13:18:23.461Z,29.02
2018-09-05T13:20:52.612Z,29.17
2018-09-05T13:23:21.584Z,29.18
2018-09-05T13:25:50.594Z,29.14
2018-09-05T13:28:19.665Z,29.00
2018-09-05T13:30:48.730Z,29.05
2018-09-05T13:33:17.732Z,28.95
2018-09-05T13:35:47.034Z,28.65
2018-09-05T13:38:16.048Z,28.33
2018-09-05T13:40:45.417Z,27.92
2018-09-05T13:43:14.422Z,27.76
2018-09-05T13:45:43.382Z,27.66
2018-09-05T13:48:12.340Z,27.54
2018-09-05T13:50:41.395Z,27.40
2018-09-05T13:53:10.540Z,27.23
2018-09-05T13:55:39.503Z,26.98
2018-09-05T13:58:08.516Z,26.60
2018-09-05T14:00:37.552Z,26.34
2018-09-05T14:03:06.506Z,25.94
2018-09-05T14:05:35.601Z,25.36
2018-09-05T14:08:04.644Z,24.75
2018-09-05T14:10:33.674Z,24.27
2018-09-05T14:13:02.727Z,23.89
2018-09-05T14:15:31.744Z,23.55
2018-09-05T14:18:00.842Z,23.05
2018-09-05T14:20:29.973Z,22.32
2018-09-05T14:22:59.029Z,21.67
2018-09-05T14:25:28.078Z,21.26
2018-09-05T14:27:57.129Z,21.03
2018-09-05T14:30:26.226Z,20.73
2018-09-05T14:32:55.196Z,20.44
2018-09-05T14:35:24.237Z,20.20
2018-09-05T14:37:53.310Z,19.92
2018-09-05T14:40:22.324Z,19.79
2018-09-05T14:42:51.504Z,19.78
2018-09-05T14:45:20.504Z,19.74
2018-09-05T14:47:49.542Z,19.80
2018-09-05T14:50:18.732Z,19.76
2018-09-05T14:52:47.701Z,19.76
2018-09-05T14:55:16.758Z,19.78
2018-09-05T14:57:45.784Z,19.78
2018-09-05T15:00:14.813Z,19.77
2018-09-05T15:02:43.832Z,19.73
2018-09-05T15:05:12.817Z,19.73
2018-09-05T15:07:45.970Z,19.70
2018-09-05T15:10:14.965Z,19.62
2018-09-05T15:12:44.337Z,19.57
2018-09-05T15:15:13.664Z,19.57
2018-09-05T15:17:42.714Z,19.43
2018-09-05T15:20:11.976Z,19.29
2018-09-05T15:22:41.661Z,19.18
2018-09-05T15:25:10.807Z,19.19
2018-09-05T15:27:39.908Z,19.20
2018-09-05T15:30:09.731Z,19.23
2018-09-05T15:32:40.290Z,19.21
2018-09-05T15:35:09.276Z,19.24
2018-09-05T15:37:38.299Z,19.38
2018-09-05T15:40:07.390Z,19.52
2018-09-05T15:42:36.509Z,19.53
2018-09-05T15:45:05.817Z,19.49
2018-09-05T15:47:34.828Z,19.43
2018-09-05T15:50:03.898Z,19.38
2018-09-05T15:52:32.935Z,19.31
2018-09-05T15:55:01.930Z,19.33
2018-09-05T15:57:31.256Z,19.30
2018-09-05T16:00:00.422Z,19.34
2018-09-05T16:02:29.597Z,19.39
2018-09-05T16:04:58.586Z,19.41
2018-09-05T16:07:27.566Z,19.46
2018-09-05T16:09:56.653Z,19.45
2018-09-05T16:12:25.648Z,19.43
2018-09-05T16:14:54.644Z,19.42
2018-09-05T16:17:23.654Z,19.40
2018-09-05T16:19:52.629Z,19.41
2018-09-05T16:22:21.686Z,19.45
2018-09-05T16:24:50.668Z,19.49
2018-09-05T16:27:19.681Z,19.53
2018-09-05T16:29:48.796Z,19.56
2018-09-05T16:32:17.801Z,19.55
2018-09-05T16:34:46.870Z,19.55
2018-09-05T16:37:15.901Z,19.57
2018-09-05T16:39:44.912Z,19.56
2018-09-05T16:42:13.949Z,19.49
2018-09-05T16:44:43.036Z,19.33
2018-09-05T16:47:12.164Z,19.15
2018-09-05T16:49:41.246Z,19.08
2018-09-05T16:52:11.084Z,18.99
2018-09-05T16:54:40.119Z,19.00
2018-09-05T16:57:09.153Z,19.00
2018-09-05T16:59:38.184Z,19.03
2018-09-05T17:02:07.188Z,19.05
2018-09-05T17:04:36.188Z,19.08
2018-09-05T17:07:05.220Z,19.11
2018-09-05T17:09:34.230Z,19.11
2018-09-05T17:12:03.374Z,19.12
2018-09-05T17:14:32.387Z,19.15
2018-09-05T17:17:01.373Z,19.14
2018-09-05T17:19:30.392Z,19.14
2018-09-05T17:21:59.425Z,19.21
2018-09-05T17:24:28.535Z,19.13
2018-09-05T17:26:57.632Z,19.10
2018-09-05T17:29:26.647Z,19.10
2018-09-05T17:31:55.640Z,19.06
2018-09-05T17:34:24.729Z,19.10
2018-09-05T17:36:53.769Z,19.13
2018-09-05T17:39:22.748Z,19.12
2018-09-05T17:41:51.993Z,19.11
2018-09-05T17:44:21.055Z,19.14
2018-09-05T17:46:50.015Z,19.18
2018-09-05T17:49:19.190Z,19.18
2018-09-05T17:51:48.216Z,19.20
2018-09-05T17:54:17.307Z,19.20
2018-09-05T17:56:46.444Z,19.16
2018-09-05T17:59:15.537Z,19.13
2018-09-05T18:01:44.704Z,19.07
2018-09-05T18:04:13.685Z,19.04
2018-09-05T18:06:42.688Z,18.99
2018-09-05T18:09:12.337Z,18.92
2018-09-05T18:11:41.379Z,18.89
2018-09-05T18:14:10.617Z,18.88
2018-09-05T18:16:39.600Z,18.82
2018-09-05T18:19:08.602Z,18.81
2018-09-05T18:21:37.630Z,18.77
2018-09-05T18:24:06.709Z,18.79
2018-09-05T18:26:35.764Z,18.71
2018-09-05T18:29:04.761Z,18.66
2018-09-05T18:31:33.930Z,18.67
2018-09-05T18:34:03.349Z,18.67
2018-09-05T18:36:32.372Z,18.63
2018-09-05T18:39:01.484Z,18.63
2018-09-05T18:41:30.601Z,18.61
2018-09-05T18:43:59.589Z,18.55
2018-09-05T18:46:28.624Z,18.51
2018-09-05T18:48:58.598Z,18.51
2018-09-05T18:51:27.656Z,18.48
2018-09-05T18:53:56.743Z,18.48
2018-09-05T18:56:26.032Z,18.52
2018-09-05T18:58:55.192Z,18.54
2018-09-05T19:01:24.196Z,18.52
2018-09-05T19:03:53.229Z,18.52
2018-09-05T19:06:22.249Z,18.54
2018-09-05T19:08:51.266Z,18.51
2018-09-05T19:11:20.377Z,18.57
2018-09-05T19:13:49.534Z,18.59
2018-09-05T19:16:18.661Z,18.62
2018-09-05T19:18:47.648Z,18.61
2018-09-05T19:21:16.616Z,18.61
2018-09-05T19:23:45.639Z,18.61
2018-09-05T19:26:14.716Z,18.61
2018-09-05T19:28:43.668Z,18.63
2018-09-05T19:31:12.700Z,18.66
2018-09-05T19:33:41.780Z,18.65
2018-09-05T19:36:10.762Z,18.63
2018-09-05T19:38:39.807Z,18.66
2018-09-05T19:41:08.783Z,18.68
2018-09-05T19:43:38.093Z,18.66
2018-09-05T19:46:07.170Z,18.61
2018-09-05T19:48:36.204Z,18.57
2018-09-05T19:51:05.212Z,18.58
2018-09-05T19:53:34.247Z,18.54
2018-09-05T19:56:03.409Z,18.49
2018-09-05T19:58:32.373Z,18.53
2018-09-05T20:01:01.470Z,18.46
2018-09-05T20:03:30.500Z,18.45
2018-09-05T20:05:59.601Z,18.44
2018-09-05T20:08:28.662Z,18.34
2018-09-05T20:10:57.681Z,18.37
2018-09-05T20:13:26.670Z,18.34
2018-09-05T20:15:55.695Z,18.32
2018-09-05T20:18:24.757Z,18.34
2018-09-05T20:20:53.789Z,18.28
2018-09-05T20:23:22.855Z,18.22
2018-09-05T20:25:51.942Z,18.22
2018-09-05T20:28:20.965Z,18.17
2018-09-05T20:30:50.068Z,18.10
2018-09-05T20:33:19.025Z,18.07
2018-09-05T20:35:48.126Z,18.11
2018-09-05T20:38:17.096Z,18.10
2018-09-05T20:40:46.149Z,18.09
2018-09-05T20:43:15.204Z,18.11
2018-09-05T20:45:44.276Z,18.11
2018-09-05T20:48:13.310Z,18.07
2018-09-05T20:50:42.385Z,18.03
2018-09-05T20:53:11.445Z,18.01
2018-09-05T20:55:40.526Z,18.07
2018-09-05T20:58:09.710Z,18.10
2018-09-05T21:00:38.813Z,18.24
2018-09-05T21:03:07.784Z,18.22
2018-09-05T21:05:36.811Z,18.25
2018-09-05T21:08:05.784Z,18.34
2018-09-05T21:10:34.786Z,18.42
2018-09-05T21:13:03.801Z,18.49
2018-09-05T21:15:32.840Z,18.55
2018-09-05T21:18:01.967Z,18.54
2018-09-05T21:20:31.000Z,18.59
2018-09-05T21:23:00.013Z,18.63
2018-09-05T21:25:28.991Z,18.67
2018-09-05T21:27:58.068Z,18.69
2018-09-05T21:30:27.088Z,18.62
2018-09-05T21:32:56.132Z,18.63
2018-09-05T21:35:25.080Z,18.58
2018-09-05T21:37:54.185Z,18.56
2018-09-05T21:40:23.216Z,18.53
2018-09-05T21:42:52.164Z,18.46
2018-09-05T21:45:21.293Z,18.40
2018-09-05T21:47:50.289Z,18.30
2018-09-05T21:50:19.341Z,18.27
2018-09-05T21:52:48.331Z,18.19
2018-09-05T21:55:17.417Z,18.12
2018-09-05T21:57:46.473Z,18.11
2018-09-05T22:00:15.545Z,18.05
2018-09-05T22:02:44.700Z,18.04
2018-09-05T22:05:13.716Z,18.04
2018-09-05T22:07:42.764Z,18.11
2018-09-05T22:10:11.711Z,18.14
2018-09-05T22:12:40.717Z,18.16
2018-09-05T22:15:09.693Z,18.15
2018-09-05T22:17:39.235Z,18.09
2018-09-05T22:20:08.252Z,18.04
2018-09-05T22:22:37.205Z,17.98
2018-09-05T22:25:06.284Z,17.94
2018-09-05T22:27:35.301Z,17.85
2018-09-05T22:30:04.425Z,17.81
2018-09-05T22:32:33.433Z,17.78
2018-09-05T22:35:02.428Z,17.73
2018-09-05T22:37:31.409Z,17.79
2018-09-05T22:40:00.416Z,17.82
2018-09-05T22:42:29.465Z,17.73
2018-09-05T22:45:09.340Z,17.69
2018-09-05T22:47:53.180Z,17.65
2018-09-05T22:52:21.942Z,17.61
2018-09-05T22:59:09.726Z,17.52
2018-09-05T23:04:26.485Z,17.29
2018-09-05T23:07:07.685Z,17.20
2018-09-05T23:09:47.751Z,17.19
2018-09-05T23:12:27.611Z,17.18
2018-09-05T23:15:07.610Z,17.21
2018-09-05T23:17:47.629Z,17.25
2018-09-05T23:21:22.786Z,17.27
2018-09-05T23:24:08.367Z,17.22
2018-09-05T23:26:37.343Z,17.21
2018-09-05T23:29:06.379Z,17.21
2018-09-05T23:31:35.499Z,17.18
2018-09-05T23:34:04.482Z,17.15
2018-09-05T23:36:33.555Z,17.16
2018-09-05T23:39:02.709Z,17.17
2018-09-05T23:41:31.850Z,17.14
2018-09-05T23:44:00.905Z,17.14
2018-09-05T23:46:29.874Z,17.13
2018-09-05T23:48:58.954Z,17.09
2018-09-05T23:51:27.919Z,17.09
2018-09-05T23:53:56.890Z,17.06
2018-09-05T23:56:26.085Z,17.06
2018-09-05T23:58:55.070Z,17.09
